Bradford Regional Airport
KBFD : rendu visible

Aérodrome :











RETROUVEZ-NOUS SUR...

 
LOGIN :

S'inscrire | Disclaimer

   EN    FR    IT 

 









Légende :    VFR   VFR Marginal   IFR   IFR Intensif   IFR Très Intensif
Visi : 
Plafond : 
>= 8 km
>= 3000ft
5 à 8 km
1000 à 3000 ft
1500m à 5 km
500 à 1000 ft
800 à 1500m
200 à 500 ft
< 800m
< 200 ft
Symboles :   Orages  Brouillard  Fortes neiges  Fortes précipitations  Vent > 20 kt






- Altitude de l'aérodrome : 2143 ft
- Code IATA : BFD


KBFD - Bradford Regional

DERNIER METAR :
  • 180853Z AUTO 14006KT 10SM OVC075 M08/M13 A3040 RMK AO2 SLP329 T10781133 56023

METARs EXPIRÉS :
  • 180753Z AUTO 12006KT 10SM BKN070 OVC085 M08/M14 A3042 RMK AO2 SLP337 T10831139
  • 180653Z AUTO 11005KT 10SM OVC110 M09/M14 A3045 RMK AO2 SLP347 T10891139

TAF KBFD
Valide du 18 à 08h jusqu'au 19 à 06h UTC


180813Z 1808/1906 12006KT P6SM BKN070 OVC090
FM181300 14008G15KT 1SM -SN OVC012
FM181500 15010G22KT 3/4SM -SN OVC009 WS014/17045KT
FM182200 18013G21KT 1 1/2SM -SN BR OVC008 WS020/21051KT
FM190203 26014G22KT 1 1/2SM -SN BR OVC008



MET'MAP, la Météo Aéronautique d'un coup d'oeil ! - Copyright ORBIFLY Décembre 2007 - Disclaimer

ORBIFLY MET'MAP TEAM :

Programmation & Développement : Alexandra Zaïnal
Sur une idée originale de : Baudouin d'Aumeries
Assistance à la programmation : Marc-Olivier Méhu
Soutien technique & logistique : Manuel Goepfert

Contact : metmap@orbifly.com




SOURCES & CREDITS :

   NOAA       Earth
Advisory